sensor_id;sensor_type;location;lat;lon;timestamp;pressure;altitude;pressure_sealevel;temperature;humidity
70971;BME280;58632;51.718;19.446;2023-05-07T00:01:45;100030.84;;;6.75;100.00
70971;BME280;58632;51.718;19.446;2023-05-07T00:04:12;100032.30;;;6.73;100.00
70971;BME280;58632;51.718;19.446;2023-05-07T00:06:38;100029.67;;;6.69;100.00
70971;BME280;58632;51.718;19.446;2023-05-07T00:09:04;100028.34;;;6.67;100.00
70971;BME280;58632;51.718;19.446;2023-05-07T00:11:32;100029.39;;;6.69;100.00
70971;BME280;58632;51.718;19.446;2023-05-07T00:13:57;100029.91;;;6.66;100.00
70971;BME280;58632;51.718;19.446;2023-05-07T00:16:23;100032.56;;;6.64;100.00
70971;BME280;58632;51.718;19.446;2023-05-07T00:18:48;100032.01;;;6.60;100.00
70971;BME280;58632;51.718;19.446;2023-05-07T00:21:14;100035.68;;;6.57;100.00
70971;BME280;58632;51.718;19.446;2023-05-07T00:23:39;100036.98;;;6.53;100.00
70971;BME280;58632;51.718;19.446;2023-05-07T00:26:05;100033.23;;;6.52;100.00
70971;BME280;58632;51.718;19.446;2023-05-07T00:28:30;100038.89;;;6.51;100.00
70971;BME280;58632;51.718;19.446;2023-05-07T00:30:55;100042.08;;;6.49;100.00
70971;BME280;58632;51.718;19.446;2023-05-07T00:33:21;100045.96;;;6.47;100.00
70971;BME280;58632;51.718;19.446;2023-05-07T00:35:47;100045.57;;;6.49;100.00
70971;BME280;58632;51.718;19.446;2023-05-07T00:38:13;100049.52;;;6.51;100.00
70971;BME280;58632;51.718;19.446;2023-05-07T00:40:38;100050.20;;;6.53;100.00
70971;BME280;58632;51.718;19.446;2023-05-07T00:43:04;100051.38;;;6.54;100.00
70971;BME280;58632;51.718;19.446;2023-05-07T00:45:29;100052.20;;;6.54;100.00
70971;BME280;58632;51.718;19.446;2023-05-07T00:47:55;100056.30;;;6.53;100.00
70971;BME280;58632;51.718;19.446;2023-05-07T00:50:22;100060.01;;;6.58;100.00
70971;BME280;58632;51.718;19.446;2023-05-07T00:52:48;100060.88;;;6.62;100.00
70971;BME280;58632;51.718;19.446;2023-05-07T00:55:14;100062.75;;;6.64;100.00
70971;BME280;58632;51.718;19.446;2023-05-07T00:57:40;100065.50;;;6.62;100.00
70971;BME280;58632;51.718;19.446;2023-05-07T01:00:06;100061.81;;;6.62;100.00
70971;BME280;58632;51.718;19.446;2023-05-07T01:02:33;100061.62;;;6.60;100.00
70971;BME280;58632;51.718;19.446;2023-05-07T01:04:59;100061.27;;;6.61;100.00
70971;BME280;58632;51.718;19.446;2023-05-07T01:07:25;100062.79;;;6.62;100.00
70971;BME280;58632;51.718;19.446;2023-05-07T01:09:51;100060.92;;;6.63;100.00
70971;BME280;58632;51.718;19.446;2023-05-07T01:12:18;100057.97;;;6.60;100.00
70971;BME280;58632;51.718;19.446;2023-05-07T01:14:44;100053.90;;;6.58;100.00
70971;BME280;58632;51.718;19.446;2023-05-07T01:17:09;100055.65;;;6.58;100.00
70971;BME280;58632;51.718;19.446;2023-05-07T01:19:35;100059.11;;;6.60;100.00
70971;BME280;58632;51.718;19.446;2023-05-07T01:22:02;100059.35;;;6.57;100.00
70971;BME280;58632;51.718;19.446;2023-05-07T01:24:29;100062.98;;;6.54;100.00
70971;BME280;58632;51.718;19.446;2023-05-07T01:26:55;100064.70;;;6.51;100.00
70971;BME280;58632;51.718;19.446;2023-05-07T01:29:20;100069.58;;;6.52;100.00
70971;BME280;58632;51.718;19.446;2023-05-07T01:31:48;100073.91;;;6.50;100.00
70971;BME280;58632;51.718;19.446;2023-05-07T01:34:14;100067.84;;;6.53;100.00
70971;BME280;58632;51.718;19.446;2023-05-07T01:36:42;100063.27;;;6.53;100.00
70971;BME280;58632;51.718;19.446;2023-05-07T01:39:08;100067.30;;;6.52;100.00
70971;BME280;58632;51.718;19.446;2023-05-07T01:41:34;100070.11;;;6.48;100.00
70971;BME280;58632;51.718;19.446;2023-05-07T01:44:00;100075.52;;;6.48;100.00
70971;BME280;58632;51.718;19.446;2023-05-07T01:46:28;100076.09;;;6.49;100.00
70971;BME280;58632;51.718;19.446;2023-05-07T01:48:55;100079.45;;;6.45;100.00
70971;BME280;58632;51.718;19.446;2023-05-07T01:51:20;100076.45;;;6.40;100.00
70971;BME280;58632;51.718;19.446;2023-05-07T01:53:47;100078.09;;;6.38;100.00
70971;BME280;58632;51.718;19.446;2023-05-07T01:56:16;100078.31;;;6.38;100.00
70971;BME280;58632;51.718;19.446;2023-05-07T01:58:41;100080.83;;;6.37;100.00
70971;BME280;58632;51.718;19.446;2023-05-07T02:01:07;100082.66;;;6.39;100.00
70971;BME280;58632;51.718;19.446;2023-05-07T02:03:32;100080.65;;;6.39;100.00
70971;BME280;58632;51.718;19.446;2023-05-07T02:05:57;100085.72;;;6.38;100.00
70971;BME280;58632;51.718;19.446;2023-05-07T02:08:23;100083.41;;;6.35;100.00
70971;BME280;58632;51.718;19.446;2023-05-07T02:10:48;100089.14;;;6.33;100.00
70971;BME280;58632;51.718;19.446;2023-05-07T02:13:15;100091.14;;;6.33;100.00
70971;BME280;58632;51.718;19.446;2023-05-07T02:15:40;100093.96;;;6.35;100.00
70971;BME280;58632;51.718;19.446;2023-05-07T02:18:07;100091.79;;;6.35;100.00
70971;BME280;58632;51.718;19.446;2023-05-07T02:20:33;100094.27;;;6.32;100.00
70971;BME280;58632;51.718;19.446;2023-05-07T02:22:58;100099.98;;;6.31;100.00
70971;BME280;58632;51.718;19.446;2023-05-07T02:25:24;100101.94;;;6.31;100.00
70971;BME280;58632;51.718;19.446;2023-05-07T02:27:50;100103.55;;;6.33;100.00
70971;BME280;58632;51.718;19.446;2023-05-07T02:30:15;100110.92;;;6.35;100.00
70971;BME280;58632;51.718;19.446;2023-05-07T02:32:41;100111.53;;;6.34;100.00
70971;BME280;58632;51.718;19.446;2023-05-07T02:35:09;100107.55;;;6.30;100.00
70971;BME280;58632;51.718;19.446;2023-05-07T02:37:34;100102.90;;;6.27;100.00
70971;BME280;58632;51.718;19.446;2023-05-07T02:40:00;100109.61;;;6.24;100.00
70971;BME280;58632;51.718;19.446;2023-05-07T02:42:25;100109.60;;;6.24;100.00
70971;BME280;58632;51.718;19.446;2023-05-07T02:44:50;100109.98;;;6.25;100.00
70971;BME280;58632;51.718;19.446;2023-05-07T02:47:18;100105.83;;;6.22;100.00
70971;BME280;58632;51.718;19.446;2023-05-07T02:49:43;100106.73;;;6.19;100.00
70971;BME280;58632;51.718;19.446;2023-05-07T02:52:09;100104.95;;;6.15;100.00
70971;BME280;58632;51.718;19.446;2023-05-07T02:54:34;100106.14;;;6.17;100.00
70971;BME280;58632;51.718;19.446;2023-05-07T02:57:00;100115.16;;;6.19;100.00
70971;BME280;58632;51.718;19.446;2023-05-07T02:59:28;100111.67;;;6.18;100.00
70971;BME280;58632;51.718;19.446;2023-05-07T03:01:53;100113.32;;;6.17;100.00
70971;BME280;58632;51.718;19.446;2023-05-07T03:04:19;100109.96;;;6.14;100.00
70971;BME280;58632;51.718;19.446;2023-05-07T03:06:44;100107.84;;;6.14;100.00
70971;BME280;58632;51.718;19.446;2023-05-07T03:09:09;100106.53;;;6.14;100.00
70971;BME280;58632;51.718;19.446;2023-05-07T03:11:35;100108.44;;;6.15;100.00
70971;BME280;58632;51.718;19.446;2023-05-07T03:14:01;100111.70;;;6.14;100.00
70971;BME280;58632;51.718;19.446;2023-05-07T03:16:26;100110.09;;;6.12;100.00
70971;BME280;58632;51.718;19.446;2023-05-07T03:18:52;100113.67;;;6.13;100.00
70971;BME280;58632;51.718;19.446;2023-05-07T03:21:17;100120.18;;;6.16;100.00
70971;BME280;58632;51.718;19.446;2023-05-07T03:23:42;100125.89;;;6.17;100.00
70971;BME280;58632;51.718;19.446;2023-05-07T03:26:08;100127.82;;;6.12;100.00
70971;BME280;58632;51.718;19.446;2023-05-07T03:28:33;100127.18;;;6.10;100.00
70971;BME280;58632;51.718;19.446;2023-05-07T03:30:59;100131.65;;;6.09;100.00
70971;BME280;58632;51.718;19.446;2023-05-07T03:33:24;100132.30;;;6.09;100.00
70971;BME280;58632;51.718;19.446;2023-05-07T03:35:50;100137.58;;;6.08;100.00
70971;BME280;58632;51.718;19.446;2023-05-07T03:38:15;100136.87;;;6.09;100.00
70971;BME280;58632;51.718;19.446;2023-05-07T03:40:41;100145.51;;;6.10;100.00
70971;BME280;58632;51.718;19.446;2023-05-07T03:43:06;100148.12;;;6.10;100.00
70971;BME280;58632;51.718;19.446;2023-05-07T03:45:32;100149.45;;;6.07;100.00
70971;BME280;58632;51.718;19.446;2023-05-07T03:47:57;100149.82;;;6.07;100.00
70971;BME280;58632;51.718;19.446;2023-05-07T03:50:23;100146.33;;;6.09;100.00
70971;BME280;58632;51.718;19.446;2023-05-07T03:52:48;100151.00;;;6.10;100.00
70971;BME280;58632;51.718;19.446;2023-05-07T03:55:13;100149.92;;;6.10;100.00
70971;BME280;58632;51.718;19.446;2023-05-07T03:57:39;100150.02;;;6.10;100.00
70971;BME280;58632;51.718;19.446;2023-05-07T04:00:05;100153.98;;;6.11;100.00
70971;BME280;58632;51.718;19.446;2023-05-07T04:02:32;100156.55;;;6.10;100.00
70971;BME280;58632;51.718;19.446;2023-05-07T04:04:57;100156.22;;;6.09;100.00
70971;BME280;58632;51.718;19.446;2023-05-07T04:07:23;100160.84;;;6.11;100.00
70971;BME280;58632;51.718;19.446;2023-05-07T04:09:48;100163.21;;;6.13;100.00
70971;BME280;58632;51.718;19.446;2023-05-07T04:12:14;100169.00;;;6.10;100.00
70971;BME280;58632;51.718;19.446;2023-05-07T04:14:40;100168.78;;;6.09;100.00
70971;BME280;58632;51.718;19.446;2023-05-07T04:17:05;100173.25;;;6.08;100.00
70971;BME280;58632;51.718;19.446;2023-05-07T04:19:35;100172.15;;;6.10;100.00
70971;BME280;58632;51.718;19.446;2023-05-07T04:22:00;100177.08;;;6.13;100.00
70971;BME280;58632;51.718;19.446;2023-05-07T04:24:30;100188.92;;;6.16;100.00
70971;BME280;58632;51.718;19.446;2023-05-07T04:26:56;100185.61;;;6.14;100.00
70971;BME280;58632;51.718;19.446;2023-05-07T04:29:23;100196.14;;;6.16;100.00
70971;BME280;58632;51.718;19.446;2023-05-07T04:31:48;100195.54;;;6.18;100.00
70971;BME280;58632;51.718;19.446;2023-05-07T04:34:14;100191.49;;;6.21;100.00
70971;BME280;58632;51.718;19.446;2023-05-07T04:36:39;100192.50;;;6.24;100.00
70971;BME280;58632;51.718;19.446;2023-05-07T04:39:05;100197.25;;;6.30;100.00
70971;BME280;58632;51.718;19.446;2023-05-07T04:41:31;100201.42;;;6.31;100.00
70971;BME280;58632;51.718;19.446;2023-05-07T04:43:56;100205.59;;;6.29;100.00
70971;BME280;58632;51.718;19.446;2023-05-07T04:46:24;100208.98;;;6.30;100.00
70971;BME280;58632;51.718;19.446;2023-05-07T04:48:52;100213.65;;;6.32;100.00
70971;BME280;58632;51.718;19.446;2023-05-07T04:51:17;100211.96;;;6.33;100.00
70971;BME280;58632;51.718;19.446;2023-05-07T04:53:42;100215.69;;;6.39;100.00
70971;BME280;58632;51.718;19.446;2023-05-07T04:56:08;100217.59;;;6.44;100.00
70971;BME280;58632;51.718;19.446;2023-05-07T04:58:34;100219.78;;;6.49;100.00
70971;BME280;58632;51.718;19.446;2023-05-07T05:00:59;100215.77;;;6.48;100.00
70971;BME280;58632;51.718;19.446;2023-05-07T05:03:25;100222.30;;;6.48;100.00
70971;BME280;58632;51.718;19.446;2023-05-07T05:05:51;100226.08;;;6.52;100.00
70971;BME280;58632;51.718;19.446;2023-05-07T05:08:17;100226.69;;;6.57;100.00
70971;BME280;58632;51.718;19.446;2023-05-07T05:10:42;100228.79;;;6.61;100.00
70971;BME280;58632;51.718;19.446;2023-05-07T05:13:08;100232.10;;;6.62;100.00
70971;BME280;58632;51.718;19.446;2023-05-07T05:15:36;100236.19;;;6.62;100.00
70971;BME280;58632;51.718;19.446;2023-05-07T05:18:01;100241.05;;;6.60;100.00
70971;BME280;58632;51.718;19.446;2023-05-07T05:20:27;100238.41;;;6.61;100.00
70971;BME280;58632;51.718;19.446;2023-05-07T05:22:52;100240.22;;;6.67;100.00
70971;BME280;58632;51.718;19.446;2023-05-07T05:25:20;100242.41;;;6.72;100.00
70971;BME280;58632;51.718;19.446;2023-05-07T05:27:45;100240.62;;;6.72;100.00
70971;BME280;58632;51.718;19.446;2023-05-07T05:30:11;100247.05;;;6.69;100.00
70971;BME280;58632;51.718;19.446;2023-05-07T05:32:37;100252.06;;;6.69;100.00
70971;BME280;58632;51.718;19.446;2023-05-07T05:35:02;100249.33;;;6.71;100.00
70971;BME280;58632;51.718;19.446;2023-05-07T05:37:31;100254.92;;;6.73;100.00
70971;BME280;58632;51.718;19.446;2023-05-07T05:39:56;100253.20;;;6.75;100.00
70971;BME280;58632;51.718;19.446;2023-05-07T05:42:21;100259.73;;;6.78;100.00
70971;BME280;58632;51.718;19.446;2023-05-07T05:44:47;100266.37;;;6.83;100.00
70971;BME280;58632;51.718;19.446;2023-05-07T05:47:13;100268.84;;;6.82;100.00
70971;BME280;58632;51.718;19.446;2023-05-07T05:49:38;100271.83;;;6.84;100.00
70971;BME280;58632;51.718;19.446;2023-05-07T05:52:04;100273.38;;;6.87;100.00
70971;BME280;58632;51.718;19.446;2023-05-07T05:54:29;100273.88;;;6.91;100.00
70971;BME280;58632;51.718;19.446;2023-05-07T05:56:55;100275.50;;;6.92;100.00
70971;BME280;58632;51.718;19.446;2023-05-07T05:59:20;100275.78;;;6.91;100.00
70971;BME280;58632;51.718;19.446;2023-05-07T06:01:46;100277.05;;;6.89;100.00
70971;BME280;58632;51.718;19.446;2023-05-07T06:04:14;100276.98;;;6.91;100.00
70971;BME280;58632;51.718;19.446;2023-05-07T06:06:39;100274.98;;;6.97;100.00
70971;BME280;58632;51.718;19.446;2023-05-07T06:09:07;100276.04;;;6.99;100.00
70971;BME280;58632;51.718;19.446;2023-05-07T06:11:32;100273.25;;;7.02;100.00
70971;BME280;58632;51.718;19.446;2023-05-07T06:13:58;100274.80;;;7.03;100.00
70971;BME280;58632;51.718;19.446;2023-05-07T06:16:24;100274.36;;;7.04;100.00
70971;BME280;58632;51.718;19.446;2023-05-07T06:18:50;100274.59;;;7.10;100.00
70971;BME280;58632;51.718;19.446;2023-05-07T06:21:15;100273.86;;;7.16;100.00
70971;BME280;58632;51.718;19.446;2023-05-07T06:23:40;100275.41;;;7.20;100.00
70971;BME280;58632;51.718;19.446;2023-05-07T06:26:06;100285.45;;;7.25;100.00
70971;BME280;58632;51.718;19.446;2023-05-07T06:28:34;100283.58;;;7.27;100.00
70971;BME280;58632;51.718;19.446;2023-05-07T06:31:15;100289.96;;;7.36;100.00
70971;BME280;58632;51.718;19.446;2023-05-07T06:33:41;100294.52;;;7.49;100.00
70971;BME280;58632;51.718;19.446;2023-05-07T06:36:06;100299.84;;;7.55;100.00
70971;BME280;58632;51.718;19.446;2023-05-07T06:38:32;100299.20;;;7.65;100.00
70971;BME280;58632;51.718;19.446;2023-05-07T06:40:57;100293.88;;;7.73;100.00
70971;BME280;58632;51.718;19.446;2023-05-07T06:43:23;100292.94;;;7.75;100.00
70971;BME280;58632;51.718;19.446;2023-05-07T06:45:48;100295.27;;;7.76;100.00
70971;BME280;58632;51.718;19.446;2023-05-07T06:48:13;100297.52;;;7.83;100.00
70971;BME280;58632;51.718;19.446;2023-05-07T06:50:39;100296.84;;;7.90;100.00
70971;BME280;58632;51.718;19.446;2023-05-07T06:53:04;100289.13;;;7.91;100.00
70971;BME280;58632;51.718;19.446;2023-05-07T06:55:30;100294.77;;;7.97;100.00
70971;BME280;58632;51.718;19.446;2023-05-07T06:57:55;100298.35;;;8.03;100.00
70971;BME280;58632;51.718;19.446;2023-05-07T07:00:23;100298.09;;;8.11;100.00
70971;BME280;58632;51.718;19.446;2023-05-07T07:02:48;100305.14;;;8.15;100.00
70971;BME280;58632;51.718;19.446;2023-05-07T07:05:14;100310.23;;;8.10;100.00
70971;BME280;58632;51.718;19.446;2023-05-07T07:07:39;100305.41;;;8.00;100.00
70971;BME280;58632;51.718;19.446;2023-05-07T07:10:05;100316.95;;;7.98;100.00
70971;BME280;58632;51.718;19.446;2023-05-07T07:12:30;100311.17;;;7.99;100.00
70971;BME280;58632;51.718;19.446;2023-05-07T07:14:55;100312.44;;;8.07;100.00
70971;BME280;58632;51.718;19.446;2023-05-07T07:17:21;100312.73;;;8.10;100.00
70971;BME280;58632;51.718;19.446;2023-05-07T07:19:47;100323.10;;;8.14;100.00
70971;BME280;58632;51.718;19.446;2023-05-07T07:22:12;100330.27;;;8.12;100.00
70971;BME280;58632;51.718;19.446;2023-05-07T07:24:37;100336.61;;;8.11;100.00
70971;BME280;58632;51.718;19.446;2023-05-07T07:27:03;100336.42;;;8.08;100.00
70971;BME280;58632;51.718;19.446;2023-05-07T07:29:28;100336.61;;;8.11;100.00
70971;BME280;58632;51.718;19.446;2023-05-07T07:31:54;100338.24;;;8.16;100.00
70971;BME280;58632;51.718;19.446;2023-05-07T07:34:20;100339.24;;;8.18;100.00
70971;BME280;58632;51.718;19.446;2023-05-07T07:36:45;100344.98;;;8.21;100.00
70971;BME280;58632;51.718;19.446;2023-05-07T07:39:10;100348.27;;;8.21;100.00
70971;BME280;58632;51.718;19.446;2023-05-07T07:41:36;100348.00;;;8.21;100.00
70971;BME280;58632;51.718;19.446;2023-05-07T07:44:02;100349.05;;;8.16;100.00
70971;BME280;58632;51.718;19.446;2023-05-07T07:46:28;100347.98;;;8.08;100.00
70971;BME280;58632;51.718;19.446;2023-05-07T07:48:54;100352.34;;;8.04;100.00
70971;BME280;58632;51.718;19.446;2023-05-07T07:51:19;100360.31;;;7.99;100.00
70971;BME280;58632;51.718;19.446;2023-05-07T07:53:45;100366.55;;;7.98;100.00
70971;BME280;58632;51.718;19.446;2023-05-07T07:56:11;100373.88;;;7.95;100.00
70971;BME280;58632;51.718;19.446;2023-05-07T07:58:37;100374.52;;;7.94;100.00
70971;BME280;58632;51.718;19.446;2023-05-07T08:01:03;100369.73;;;7.96;100.00
70971;BME280;58632;51.718;19.446;2023-05-07T08:03:28;100373.69;;;8.08;100.00
70971;BME280;58632;51.718;19.446;2023-05-07T08:05:56;100373.34;;;8.27;100.00
70971;BME280;58632;51.718;19.446;2023-05-07T08:08:22;100368.13;;;8.39;100.00
70971;BME280;58632;51.718;19.446;2023-05-07T08:10:47;100366.80;;;8.46;100.00
70971;BME280;58632;51.718;19.446;2023-05-07T08:13:15;100368.30;;;8.49;100.00
70971;BME280;58632;51.718;19.446;2023-05-07T08:15:41;100369.95;;;8.51;100.00
70971;BME280;58632;51.718;19.446;2023-05-07T08:18:06;100374.39;;;8.47;100.00
70971;BME280;58632;51.718;19.446;2023-05-07T08:20:31;100374.42;;;8.37;100.00
70971;BME280;58632;51.718;19.446;2023-05-07T08:22:58;100377.04;;;8.29;100.00
70971;BME280;58632;51.718;19.446;2023-05-07T08:25:23;100378.02;;;8.24;100.00
70971;BME280;58632;51.718;19.446;2023-05-07T08:27:49;100383.83;;;8.18;100.00
70971;BME280;58632;51.718;19.446;2023-05-07T08:30:14;100386.58;;;8.17;100.00
70971;BME280;58632;51.718;19.446;2023-05-07T08:32:40;100386.27;;;8.28;100.00
70971;BME280;58632;51.718;19.446;2023-05-07T08:35:05;100385.71;;;8.61;100.00
70971;BME280;58632;51.718;19.446;2023-05-07T08:37:31;100392.26;;;9.02;100.00
70971;BME280;58632;51.718;19.446;2023-05-07T08:39:56;100398.86;;;9.40;100.00
70971;BME280;58632;51.718;19.446;2023-05-07T08:42:23;100402.22;;;9.50;100.00
70971;BME280;58632;51.718;19.446;2023-05-07T08:44:48;100404.05;;;9.41;100.00
70971;BME280;58632;51.718;19.446;2023-05-07T08:47:18;100407.17;;;9.31;100.00
70971;BME280;58632;51.718;19.446;2023-05-07T08:49:43;100410.71;;;9.15;100.00
70971;BME280;58632;51.718;19.446;2023-05-07T08:52:09;100411.27;;;9.03;100.00
70971;BME280;58632;51.718;19.446;2023-05-07T08:54:37;100414.27;;;9.00;100.00
70971;BME280;58632;51.718;19.446;2023-05-07T08:57:03;100414.95;;;8.98;100.00
70971;BME280;58632;51.718;19.446;2023-05-07T08:59:28;100419.26;;;9.02;100.00
70971;BME280;58632;51.718;19.446;2023-05-07T09:01:53;100420.57;;;9.17;100.00
70971;BME280;58632;51.718;19.446;2023-05-07T09:04:19;100423.91;;;9.34;100.00
70971;BME280;58632;51.718;19.446;2023-05-07T09:06:44;100421.02;;;9.40;100.00
70971;BME280;58632;51.718;19.446;2023-05-07T09:09:10;100422.42;;;9.48;100.00
70971;BME280;58632;51.718;19.446;2023-05-07T09:11:39;100424.21;;;9.65;100.00
70971;BME280;58632;51.718;19.446;2023-05-07T09:14:04;100426.92;;;9.82;100.00
70971;BME280;58632;51.718;19.446;2023-05-07T09:16:30;100422.74;;;9.95;100.00
70971;BME280;58632;51.718;19.446;2023-05-07T09:18:58;100432.13;;;10.13;100.00
70971;BME280;58632;51.718;19.446;2023-05-07T09:21:24;100430.63;;;10.21;100.00
70971;BME280;58632;51.718;19.446;2023-05-07T09:23:53;100428.49;;;10.24;100.00
70971;BME280;58632;51.718;19.446;2023-05-07T09:26:22;100437.19;;;10.47;100.00
70971;BME280;58632;51.718;19.446;2023-05-07T09:28:50;100438.11;;;10.61;100.00
70971;BME280;58632;51.718;19.446;2023-05-07T09:31:16;100436.02;;;10.58;100.00
70971;BME280;58632;51.718;19.446;2023-05-07T09:33:42;100442.22;;;10.56;100.00
70971;BME280;58632;51.718;19.446;2023-05-07T09:36:08;100447.43;;;10.47;100.00
70971;BME280;58632;51.718;19.446;2023-05-07T09:38:35;100445.17;;;10.31;100.00
70971;BME280;58632;51.718;19.446;2023-05-07T09:43:32;100445.36;;;10.41;100.00
70971;BME280;58632;51.718;19.446;2023-05-07T09:46:01;100448.35;;;10.81;100.00
70971;BME280;58632;51.718;19.446;2023-05-07T09:48:27;100446.45;;;11.34;100.00
70971;BME280;58632;51.718;19.446;2023-05-07T09:50:55;100444.27;;;11.69;100.00
70971;BME280;58632;51.718;19.446;2023-05-07T09:53:22;100445.35;;;11.81;100.00
70971;BME280;58632;51.718;19.446;2023-05-07T09:55:48;100446.60;;;11.70;100.00
70971;BME280;58632;51.718;19.446;2023-05-07T09:58:13;100446.61;;;11.52;100.00
70971;BME280;58632;51.718;19.446;2023-05-07T10:00:40;100453.42;;;11.49;100.00
70971;BME280;58632;51.718;19.446;2023-05-07T10:03:06;100454.73;;;11.65;100.00
70971;BME280;58632;51.718;19.446;2023-05-07T10:05:32;100461.29;;;11.84;100.00
70971;BME280;58632;51.718;19.446;2023-05-07T10:07:58;100459.73;;;12.04;100.00
70971;BME280;58632;51.718;19.446;2023-05-07T10:10:25;100460.05;;;11.97;100.00
70971;BME280;58632;51.718;19.446;2023-05-07T10:12:51;100460.73;;;11.87;100.00
70971;BME280;58632;51.718;19.446;2023-05-07T10:15:17;100461.53;;;11.91;100.00
70971;BME280;58632;51.718;19.446;2023-05-07T10:17:43;100459.73;;;11.95;100.00
70971;BME280;58632;51.718;19.446;2023-05-07T10:20:09;100460.55;;;11.97;100.00
70971;BME280;58632;51.718;19.446;2023-05-07T10:22:43;100466.63;;;11.83;100.00
70971;BME280;58632;51.718;19.446;2023-05-07T10:25:18;100466.33;;;11.82;100.00
70971;BME280;58632;51.718;19.446;2023-05-07T10:27:46;100470.20;;;11.99;100.00
70971;BME280;58632;51.718;19.446;2023-05-07T10:32:56;100474.48;;;12.42;100.00
70971;BME280;58632;51.718;19.446;2023-05-07T10:35:31;100474.91;;;12.18;100.00
70971;BME280;58632;51.718;19.446;2023-05-07T10:37:57;100477.63;;;11.88;100.00
70971;BME280;58632;51.718;19.446;2023-05-07T10:40:23;100475.45;;;11.75;100.00
70971;BME280;58632;51.718;19.446;2023-05-07T10:42:59;100478.89;;;11.74;100.00
70971;BME280;58632;51.718;19.446;2023-05-07T10:45:25;100477.85;;;11.71;100.00
70971;BME280;58632;51.718;19.446;2023-05-07T10:48:07;100476.10;;;11.71;100.00
70971;BME280;58632;51.718;19.446;2023-05-07T10:50:36;100480.10;;;11.58;100.00
70971;BME280;58632;51.718;19.446;2023-05-07T10:55:38;100484.02;;;11.10;100.00
70971;BME280;58632;51.718;19.446;2023-05-07T11:00:48;100479.50;;;10.91;100.00
70971;BME280;58632;51.718;19.446;2023-05-07T11:03:14;100481.11;;;10.93;100.00
70971;BME280;58632;51.718;19.446;2023-05-07T11:05:40;100489.42;;;11.16;100.00
70971;BME280;58632;51.718;19.446;2023-05-07T11:08:06;100482.77;;;11.42;100.00
70971;BME280;58632;51.718;19.446;2023-05-07T11:13:16;100485.05;;;12.41;100.00
70971;BME280;58632;51.718;19.446;2023-05-07T11:15:42;100475.57;;;12.70;100.00
70971;BME280;58632;51.718;19.446;2023-05-07T11:18:09;100480.10;;;12.65;100.00
70971;BME280;58632;51.718;19.446;2023-05-07T11:20:51;100479.79;;;12.57;100.00
70971;BME280;58632;51.718;19.446;2023-05-07T11:23:54;100489.74;;;12.48;100.00
70971;BME280;58632;51.718;19.446;2023-05-07T11:26:09;100486.43;;;12.35;100.00
70971;BME280;58632;51.718;19.446;2023-05-07T11:28:41;100492.33;;;12.18;100.00
70971;BME280;58632;51.718;19.446;2023-05-07T11:31:07;100500.17;;;12.06;100.00
70971;BME280;58632;51.718;19.446;2023-05-07T11:33:32;100503.10;;;11.82;100.00
70971;BME280;58632;51.718;19.446;2023-05-07T11:35:58;100504.86;;;11.71;100.00
70971;BME280;58632;51.718;19.446;2023-05-07T11:38:24;100505.61;;;11.78;100.00
70971;BME280;58632;51.718;19.446;2023-05-07T11:40:54;100513.67;;;11.89;100.00
70971;BME280;58632;51.718;19.446;2023-05-07T11:43:20;100517.98;;;11.77;100.00
70971;BME280;58632;51.718;19.446;2023-05-07T11:45:46;100514.69;;;11.65;100.00
70971;BME280;58632;51.718;19.446;2023-05-07T11:48:15;100521.04;;;11.69;100.00
70971;BME280;58632;51.718;19.446;2023-05-07T11:50:59;100522.88;;;11.77;100.00
70971;BME280;58632;51.718;19.446;2023-05-07T11:53:25;100523.51;;;11.88;100.00
70971;BME280;58632;51.718;19.446;2023-05-07T11:55:56;100521.58;;;11.95;100.00
70971;BME280;58632;51.718;19.446;2023-05-07T11:58:23;100521.55;;;12.16;100.00
70971;BME280;58632;51.718;19.446;2023-05-07T12:00:52;100522.55;;;12.50;100.00
70971;BME280;58632;51.718;19.446;2023-05-07T12:03:17;100522.04;;;12.82;100.00
70971;BME280;58632;51.718;19.446;2023-05-07T12:05:43;100519.60;;;13.01;100.00
70971;BME280;58632;51.718;19.446;2023-05-07T12:08:13;100525.26;;;12.96;99.91
70971;BME280;58632;51.718;19.446;2023-05-07T12:10:40;100528.05;;;12.60;98.75
70971;BME280;58632;51.718;19.446;2023-05-07T12:13:13;100525.18;;;12.34;100.00
70971;BME280;58632;51.718;19.446;2023-05-07T12:15:39;100530.54;;;12.37;100.00
70971;BME280;58632;51.718;19.446;2023-05-07T12:18:04;100529.66;;;12.35;100.00
70971;BME280;58632;51.718;19.446;2023-05-07T12:20:30;100522.43;;;12.19;100.00
70971;BME280;58632;51.718;19.446;2023-05-07T12:22:55;100533.88;;;12.08;100.00
70971;BME280;58632;51.718;19.446;2023-05-07T12:25:21;100535.02;;;12.00;100.00
70971;BME280;58632;51.718;19.446;2023-05-07T12:27:51;100534.35;;;12.05;100.00
70971;BME280;58632;51.718;19.446;2023-05-07T12:30:16;100533.70;;;12.23;100.00
70971;BME280;58632;51.718;19.446;2023-05-07T12:32:43;100529.13;;;12.37;100.00
70971;BME280;58632;51.718;19.446;2023-05-07T12:35:12;100530.09;;;12.47;100.00
70971;BME280;58632;51.718;19.446;2023-05-07T12:37:38;100532.55;;;12.46;100.00
70971;BME280;58632;51.718;19.446;2023-05-07T12:40:06;100544.10;;;12.29;100.00
70971;BME280;58632;51.718;19.446;2023-05-07T12:42:36;100543.08;;;12.18;100.00
70971;BME280;58632;51.718;19.446;2023-05-07T12:45:35;100546.59;;;12.19;100.00
70971;BME280;58632;51.718;19.446;2023-05-07T12:47:53;100551.89;;;12.12;100.00